Accueil
METAR-TAF:

METAR-TAF

Aéroports :

Aéroport international de Ouagadougou

Ouagadougou, Burkina Faso

latitude: 12-21N, longitude: 001-31W, altitude: 316 m

Observation

Le bulletin a été fait il y a 58 minutes, à 01:00 UTC
Vent 2 kt de ouest
Température 27°C
Humidité 66%
Pression 1011 hPa
Visibilité: 8000 m

METAR: DFFD 230100Z 26002KT 8000 NSC 27/20 Q1011 NOSIG

Heure: 01:58 (01:58 UTC)

Prévision

Le bulletin a été fait il y a 2 heures et 58 minutes, à 23:00 UTC
Prévision valable du 23 à 00 UTC au 24 à 06 UTC
Vent 8 kt de direction variable
Visibilité 10 km ou plus
pas de nuages en-dessous de 1500 mètres et pas de cumulonimbus.
Temporairement
du 23 à 15 UTC au 23 à 22 UTC
Quelques nuages à une hauteur de 2600 ft
Quelques nuages à une hauteur de 4000 ft, Cumulonimbus.
orage

TAF: DFFD 222300Z 2300/2406 VRB08KT CAVOK TEMPO 2315/2322 TS FEW026 FEW040CB

Observations et prévisions météorologiques de plus de 4000 aéroports (messages METAR et TAF).

Les stations disponibles sont représentées par des disques jaunes et rouges sur la carte.

Passer la souris dessus pour voir le nom de la station.

Cliquer dessus pour voir les observations et prévisions météorologiques.

Pour changer de carte: cliquez sur les boutons verts avec une croix noire pour zoomer, sur le bouton vert avec un tiret pour effectuer un zoom arrière, ou sur les flèches vertes pour les cartes adjacentes.


METAR-TAF: